Time;durP1;ratioP1;P1;durP2;ratioP2;P2;SDS_P1;SDS_P2;PMS_P1;PMS_P2;Temp;Humidity;BMP_temperature;BMP_pressure;BME280_temperature;BME280_humidity;BME280_pressure;Samples;Min_cycle;Max_cycle;Signal;HPM_P1;HPM_P2
2022/12/04 00:02:04;;;;;;;26.75;12.50;;;0.90;99.90;;;;;;5047054;28;20033;-47
2022/12/04 00:04:29;;;;;;;26.58;11.60;;;0.90;99.90;;;;;;5046987;28;20437;-44
2022/12/04 00:06:55;;;;;;;27.05;11.35;;;0.90;99.90;;;;;;5037975;28;20037;-45
2022/12/04 00:09:22;;;;;;;27.23;11.45;;;0.90;99.90;;;;;;5047953;28;20044;-45
2022/12/04 00:11:47;;;;;;;25.08;12.00;;;0.90;99.90;;;;;;5041734;28;20033;-46
2022/12/04 00:14:13;;;;;;;28.30;12.55;;;0.90;99.90;;;;;;5048292;28;20032;-47
2022/12/04 00:16:39;;;;;;;29.63;12.95;;;0.90;99.90;;;;;;5047102;28;20037;-44
2022/12/04 00:19:04;;;;;;;26.20;12.52;;;0.90;99.90;;;;;;5045168;28;20071;-45
2022/12/04 00:21:30;;;;;;;25.50;11.48;;;0.90;99.90;;;;;;5045706;28;20440;-45
2022/12/04 00:23:56;;;;;;;30.40;14.80;;;0.90;99.90;;;;;;5040178;28;20040;-44
2022/12/04 00:26:24;;;;;;;29.48;12.55;;;0.90;99.90;;;;;;5021696;28;20037;-45
2022/12/04 00:28:50;;;;;;;27.73;12.35;;;0.90;99.90;;;;;;5039540;28;20116;-41
2022/12/04 00:31:21;;;;;;;29.60;13.25;;;0.90;99.90;;;;;;5043462;28;20045;-42
2022/12/04 00:33:46;;;;;;;29.75;13.20;;;0.90;99.90;;;;;;5028680;28;20041;-50
2022/12/04 00:36:15;;;;;;;28.88;12.85;;;0.90;99.90;;;;;;5043074;28;20508;-43
2022/12/04 00:38:44;;;;;;;28.55;12.18;;;0.90;99.90;;;;;;5034705;28;20781;-43
2022/12/04 00:41:15;;;;;;;29.90;13.05;;;0.90;99.90;;;;;;5036120;28;20377;-45
2022/12/04 00:43:41;;;;;;;25.48;11.55;;;0.90;99.90;;;;;;5043021;28;20438;-43
2022/12/04 00:46:08;;;;;;;27.13;12.02;;;0.90;99.90;;;;;;5046373;28;20041;-49
2022/12/04 00:48:34;;;;;;;30.65;12.75;;;0.90;99.90;;;;;;5045420;28;20072;-43
2022/12/04 00:51:04;;;;;;;25.80;11.68;;;1.00;99.90;;;;;;5039073;28;20086;-42
2022/12/04 00:53:30;;;;;;;24.52;11.35;;;0.90;99.90;;;;;;5049197;28;20052;-43
2022/12/04 00:55:56;;;;;;;31.27;12.43;;;0.90;99.90;;;;;;5046617;28;20036;-44
2022/12/04 00:58:22;;;;;;;30.42;13.70;;;0.90;99.90;;;;;;5049883;28;20399;-45
2022/12/04 01:00:47;;;;;;;28.75;12.95;;;0.90;99.90;;;;;;5046265;28;20030;-45
2022/12/04 01:03:13;;;;;;;31.30;13.90;;;0.90;99.90;;;;;;5038395;28;20041;-47
2022/12/04 01:05:44;;;;;;;30.73;13.45;;;0.90;99.90;;;;;;5050433;28;20040;-48
2022/12/04 01:08:11;;;;;;;29.38;11.88;;;0.90;99.90;;;;;;5042050;28;20124;-48
2022/12/04 01:10:41;;;;;;;29.40;12.30;;;0.90;99.90;;;;;;5042755;28;20071;-44
2022/12/04 01:13:07;;;;;;;29.15;12.23;;;0.90;99.90;;;;;;5042076;28;20125;-44
2022/12/04 01:15:36;;;;;;;29.40;12.98;;;0.90;99.90;;;;;;5040062;28;20109;-46
2022/12/04 01:18:02;;;;;;;25.85;11.65;;;0.90;99.90;;;;;;5043417;28;20053;-45
2022/12/04 01:20:28;;;;;;;28.10;11.88;;;0.90;99.90;;;;;;5032047;28;20037;-44
2022/12/04 01:22:53;;;;;;;32.22;13.55;;;0.90;99.90;;;;;;5040242;28;20487;-48
2022/12/04 01:25:22;;;;;;;29.25;12.15;;;0.90;99.90;;;;;;5051510;28;20032;-46
2022/12/04 01:27:47;;;;;;;24.83;11.20;;;0.90;99.90;;;;;;5047473;28;20045;-50
2022/12/04 01:30:13;;;;;;;31.13;13.65;;;0.90;99.90;;;;;;5048056;28;20116;-46
2022/12/04 01:32:39;;;;;;;29.00;12.05;;;0.90;99.90;;;;;;5037152;28;20053;-48
2022/12/04 01:35:05;;;;;;;26.50;12.30;;;0.90;99.90;;;;;;5033254;28;20043;-46
2022/12/04 01:37:31;;;;;;;28.80;12.90;;;0.90;99.90;;;;;;5035242;28;20052;-48
2022/12/04 01:39:58;;;;;;;29.42;13.27;;;0.90;99.90;;;;;;5020771;28;20057;-45
2022/12/04 01:42:24;;;;;;;29.30;12.57;;;0.90;99.90;;;;;;5017804;28;20041;-48
2022/12/04 01:45:27;;;;;;;30.38;13.43;;;0.90;99.90;;;;;;5028421;28;20045;-42
2022/12/04 01:47:56;;;;;;;29.08;13.20;;;0.90;99.90;;;;;;5019105;28;20081;-47
2022/12/04 01:50:22;;;;;;;34.17;14.38;;;0.90;99.90;;;;;;5019409;28;20112;-41
2022/12/04 01:52:48;;;;;;;29.35;13.57;;;0.90;99.90;;;;;;5026091;28;20045;-47
2022/12/04 01:55:15;;;;;;;33.20;12.95;;;0.90;99.90;;;;;;5019129;28;20053;-42
2022/12/04 01:57:41;;;;;;;26.05;11.38;;;0.90;99.90;;;;;;5021834;28;20045;-45
2022/12/04 02:00:14;;;;;;;30.73;12.65;;;0.90;99.90;;;;;;5022205;28;20427;-42
2022/12/04 02:02:43;;;;;;;31.25;13.68;;;0.90;99.90;;;;;;5018682;28;20120;-45
2022/12/04 02:05:15;;;;;;;32.50;13.38;;;0.90;99.90;;;;;;5018008;28;20042;-49
2022/12/04 02:07:43;;;;;;;36.20;13.77;;;0.90;99.90;;;;;;5023947;28;20034;-45
2022/12/04 02:10:10;;;;;;;30.80;13.38;;;0.90;99.90;;;;;;5018890;28;20698;-43
2022/12/04 02:13:01;;;;;;;32.17;13.60;;;0.90;99.90;;;;;;5024969;28;20049;-44
2022/12/04 02:15:46;;;;;;;35.67;14.25;;;0.90;99.90;;;;;;5025138;28;20041;-46
2022/12/04 02:18:31;;;;;;;28.52;13.02;;;0.80;99.90;;;;;;5024774;28;20125;-44
2022/12/04 02:21:02;;;;;;;32.67;14.85;;;0.90;99.90;;;;;;5019122;28;20398;-43
2022/12/04 02:23:37;;;;;;;28.77;13.65;;;0.90;99.90;;;;;;5032063;28;20527;-44
2022/12/04 02:26:28;;;;;;;29.08;12.35;;;0.90;99.90;;;;;;5023995;28;20045;-45
2022/12/04 02:29:10;;;;;;;33.22;13.40;;;0.90;99.90;;;;;;4991388;28;20056;-44
2022/12/04 02:32:06;;;;;;;31.92;13.82;;;0.90;99.90;;;;;;5012848;28;20049;-45
2022/12/04 02:34:57;;;;;;;27.63;12.40;;;0.90;99.90;;;;;;5018696;28;20045;-48
2022/12/04 02:37:33;;;;;;;31.88;13.68;;;0.90;99.90;;;;;;5006280;28;20042;-44
2022/12/04 02:40:25;;;;;;;34.90;14.75;;;0.90;99.90;;;;;;5028368;28;20060;-45
2022/12/04 02:43:13;;;;;;;35.00;15.00;;;0.90;99.90;;;;;;5002644;28;20049;-37
2022/12/04 02:45:45;;;;;;;32.63;13.27;;;0.90;99.90;;;;;;5014267;28;20073;-37
2022/12/04 02:48:17;;;;;;;33.85;14.40;;;0.80;99.90;;;;;;5025093;28;20049;-37
2022/12/04 02:50:46;;;;;;;31.50;13.98;;;0.90;99.90;;;;;;5016598;28;20125;-37
2022/12/04 02:53:38;;;;;;;34.72;13.95;;;0.80;99.90;;;;;;5016380;28;20488;-37
2022/12/04 02:56:10;;;;;;;30.88;12.77;;;0.80;99.90;;;;;;5017553;28;20045;-37
2022/12/04 02:58:58;;;;;;;34.25;14.65;;;0.80;99.90;;;;;;5010345;28;20038;-37
2022/12/04 03:01:33;;;;;;;31.08;14.52;;;0.80;99.90;;;;;;5005248;28;20044;-37
2022/12/04 03:04:19;;;;;;;29.77;13.75;;;0.80;99.90;;;;;;5017328;28;20076;-38
2022/12/04 03:06:49;;;;;;;32.22;13.77;;;0.80;99.90;;;;;;5015055;28;20538;-37
2022/12/04 03:09:28;;;;;;;35.35;15.32;;;0.80;99.90;;;;;;5018850;28;20046;-37
2022/12/04 03:12:04;;;;;;;35.75;14.55;;;0.80;99.90;;;;;;5020651;28;20160;-37
2022/12/04 03:14:43;;;;;;;33.58;14.93;;;0.80;99.90;;;;;;5016062;28;20496;-38
2022/12/04 03:17:24;;;;;;;32.92;14.30;;;0.80;99.90;;;;;;5019893;28;20049;-37
2022/12/04 03:19:57;;;;;;;34.17;13.80;;;0.80;99.90;;;;;;5023165;28;20126;-38
2022/12/04 03:22:24;;;;;;;31.15;13.25;;;0.80;99.90;;;;;;5016088;28;20057;-37
2022/12/04 03:24:54;;;;;;;34.25;14.75;;;0.80;99.90;;;;;;5019593;28;20045;-37
2022/12/04 03:27:50;;;;;;;30.67;12.98;;;0.80;99.90;;;;;;5022677;28;20605;-38
2022/12/04 03:30:20;;;;;;;34.60;14.18;;;0.80;99.90;;;;;;5008362;28;20038;-37
2022/12/04 03:32:55;;;;;;;33.63;15.13;;;0.80;99.90;;;;;;5014764;28;20033;-37
2022/12/04 03:35:24;;;;;;;31.60;12.57;;;0.80;99.90;;;;;;5018373;28;20029;-37
2022/12/04 03:38:05;;;;;;;33.35;14.75;;;0.80;99.90;;;;;;5017197;28;20560;-38
2022/12/04 03:40:39;;;;;;;36.25;15.00;;;0.80;99.90;;;;;;5031756;28;20041;-38
2022/12/04 03:43:15;;;;;;;27.33;12.27;;;0.80;99.90;;;;;;5034937;28;20057;-37
2022/12/04 03:45:57;;;;;;;31.52;13.45;;;0.80;99.90;;;;;;5034757;28;20037;-37
2022/12/04 03:48:35;;;;;;;34.58;15.15;;;0.80;99.90;;;;;;5041059;28;20532;-37
2022/12/04 03:51:13;;;;;;;30.95;13.27;;;0.80;99.90;;;;;;5041084;28;20061;-37
2022/12/04 03:53:54;;;;;;;30.55;14.13;;;0.80;99.90;;;;;;5043297;28;20069;-37
2022/12/04 03:56:31;;;;;;;31.80;14.68;;;0.80;99.90;;;;;;5043692;28;20033;-38
2022/12/04 03:59:08;;;;;;;33.05;14.93;;;0.80;99.90;;;;;;5047936;28;20032;-38
2022/12/04 04:01:38;;;;;;;32.13;15.13;;;0.80;99.90;;;;;;5040792;28;20118;-38
2022/12/04 04:04:09;;;;;;;32.25;14.55;;;0.80;99.90;;;;;;5047884;28;20512;-38
2022/12/04 04:06:43;;;;;;;34.63;14.50;;;0.80;99.90;;;;;;5039949;28;20088;-38
2022/12/04 04:09:14;;;;;;;34.50;15.50;;;0.80;99.90;;;;;;5042660;28;20063;-38
2022/12/04 04:12:06;;;;;;;32.60;14.98;;;0.80;99.90;;;;;;5039440;28;20041;-38
2022/12/04 04:25:57;;;;;;;32.95;13.27;;;0.80;99.90;;;;;;5040506;28;20306;-38
2022/12/04 04:28:37;;;;;;;31.80;14.57;;;0.80;99.90;;;;;;5037446;28;20041;-38
2022/12/04 04:31:15;;;;;;;36.10;13.75;;;0.80;99.90;;;;;;5026679;28;20056;-38
2022/12/04 04:34:08;;;;;;;36.33;15.85;;;0.80;99.90;;;;;;5044475;28;20041;-39
2022/12/04 04:36:48;;;;;;;;;;;0.80;99.90;;;;;;5042865;28;20443;-38
2022/12/04 04:39:37;;;;;;;38.20;15.25;;;0.80;99.90;;;;;;5043702;28;19963;-38
2022/12/04 04:42:14;;;;;;;32.13;13.10;;;0.80;99.90;;;;;;5041022;28;20173;-38
2022/12/04 04:45:02;;;;;;;31.73;14.07;;;0.80;99.90;;;;;;5041522;28;20088;-38
2022/12/04 04:47:57;;;;;;;37.08;15.40;;;0.80;99.90;;;;;;5042542;28;20044;-38
2022/12/04 04:50:23;;;;;;;34.17;14.20;;;0.80;99.90;;;;;;5036321;28;20516;-38
2022/12/04 04:52:53;;;;;;;32.15;13.38;;;0.80;99.90;;;;;;5049733;28;20047;-38
2022/12/04 04:55:20;;;;;;;34.38;14.18;;;0.80;99.90;;;;;;5047531;28;20553;-38
2022/12/04 04:57:45;;;;;;;30.15;14.18;;;0.80;99.90;;;;;;5047979;28;20040;-38
2022/12/04 05:00:14;;;;;;;34.25;14.88;;;0.80;99.90;;;;;;5043616;28;20029;-38
2022/12/04 05:02:40;;;;;;;36.05;14.30;;;0.80;99.90;;;;;;5042366;28;20112;-38
2022/12/04 05:05:06;;;;;;;33.13;14.60;;;0.80;99.90;;;;;;5045381;28;20495;-38
2022/12/04 05:07:32;;;;;;;32.53;13.98;;;0.80;99.90;;;;;;5043830;28;20040;-38
2022/12/04 05:09:57;;;;;;;33.38;14.48;;;0.80;99.90;;;;;;5047719;28;20043;-46
2022/12/04 05:12:23;;;;;;;32.92;13.88;;;0.80;99.90;;;;;;5040866;28;20080;-43
2022/12/04 05:14:48;;;;;;;37.22;15.20;;;0.80;99.90;;;;;;5045152;28;20116;-43
2022/12/04 05:17:15;;;;;;;33.50;13.43;;;0.80;99.90;;;;;;5052354;28;20136;-45
2022/12/04 05:19:52;;;;;;;33.53;14.98;;;0.80;99.90;;;;;;5045067;28;20537;-44
2022/12/04 05:22:20;;;;;;;34.50;14.98;;;0.80;99.90;;;;;;5028540;28;20460;-47
2022/12/04 05:24:46;;;;;;;35.85;15.02;;;0.80;99.90;;;;;;5046800;28;20044;-44
2022/12/04 05:27:11;;;;;;;35.17;15.52;;;0.80;99.90;;;;;;5042507;28;20124;-48
2022/12/04 05:29:37;;;;;;;32.33;14.45;;;0.80;99.90;;;;;;5031725;28;20041;-46
2022/12/04 05:32:03;;;;;;;39.35;14.68;;;0.80;99.90;;;;;;5023811;28;20041;-46
2022/12/04 05:34:29;;;;;;;34.63;15.13;;;0.80;99.90;;;;;;5040128;28;20041;-44
2022/12/04 05:36:54;;;;;;;32.13;13.80;;;0.80;99.90;;;;;;5034257;28;20040;-46
2022/12/04 05:39:20;;;;;;;32.45;14.38;;;0.70;99.90;;;;;;5045993;28;20068;-45
2022/12/04 05:41:46;;;;;;;36.03;14.25;;;0.80;99.90;;;;;;5045451;28;20560;-44
2022/12/04 05:44:12;;;;;;;35.53;15.02;;;0.80;99.90;;;;;;5045328;28;20053;-45
2022/12/04 05:46:37;;;;;;;35.33;15.55;;;0.70;99.90;;;;;;5044864;28;20387;-45
2022/12/04 05:49:03;;;;;;;37.40;15.40;;;0.80;99.90;;;;;;5046799;28;20591;-43
2022/12/04 05:51:29;;;;;;;36.13;14.93;;;0.70;99.90;;;;;;5049030;28;20040;-44
2022/12/04 05:53:54;;;;;;;31.17;14.02;;;0.70;99.90;;;;;;5044779;28;20045;-47
2022/12/04 05:56:20;;;;;;;31.67;13.75;;;0.70;99.90;;;;;;5045049;28;20108;-44
2022/12/04 05:58:46;;;;;;;33.00;14.15;;;0.70;99.90;;;;;;5026090;28;20079;-44
2022/12/04 06:01:15;;;;;;;33.08;14.73;;;0.70;99.90;;;;;;5042252;28;20076;-47
2022/12/04 06:03:42;;;;;;;34.80;14.93;;;0.70;99.90;;;;;;5029833;28;20051;-38
2022/12/04 06:06:13;;;;;;;32.92;14.48;;;0.70;99.90;;;;;;5021782;28;20113;-38
2022/12/04 06:08:39;;;;;;;33.95;13.98;;;0.70;99.90;;;;;;5039774;28;20511;-41
2022/12/04 06:11:17;;;;;;;32.85;13.77;;;0.70;99.90;;;;;;5040958;28;20079;-38
2022/12/04 06:13:44;;;;;;;30.88;13.90;;;0.80;99.90;;;;;;5040540;28;20495;-38
2022/12/04 06:16:18;;;;;;;32.72;14.63;;;0.80;99.90;;;;;;5053361;28;20491;-44
2022/12/04 06:18:47;;;;;;;31.05;14.38;;;0.80;99.90;;;;;;5035666;28;20068;-38
2022/12/04 06:21:12;;;;;;;32.90;13.68;;;0.80;99.90;;;;;;5033257;28;20072;-40
2022/12/04 06:23:38;;;;;;;33.20;14.07;;;0.80;99.90;;;;;;5034267;28;20084;-38
2022/12/04 06:26:06;;;;;;;32.22;14.93;;;0.80;99.90;;;;;;5038958;28;20053;-38
2022/12/04 06:28:31;;;;;;;35.65;15.73;;;0.80;99.90;;;;;;5037301;28;20048;-38
2022/12/04 06:31:02;;;;;;;31.40;13.82;;;0.80;99.90;;;;;;5032890;28;20059;-38
2022/12/04 06:33:27;;;;;;;34.28;15.07;;;0.70;99.90;;;;;;5039008;28;20041;-38
2022/12/04 06:36:05;;;;;;;34.78;15.43;;;0.70;99.90;;;;;;5014961;28;20099;-39
2022/12/04 06:38:31;;;;;;;35.10;14.40;;;0.70;99.90;;;;;;5034127;28;20059;-38
2022/12/04 06:40:57;;;;;;;36.35;14.85;;;0.70;99.90;;;;;;5031550;28;20483;-38
2022/12/04 06:43:23;;;;;;;34.85;15.07;;;0.70;99.90;;;;;;5038229;28;20040;-38
2022/12/04 06:45:58;;;;;;;33.60;13.50;;;0.70;99.90;;;;;;5035858;28;20059;-38
2022/12/04 06:48:24;;;;;;;36.72;15.25;;;0.70;99.90;;;;;;5036414;28;20676;-39
2022/12/04 06:51:01;;;;;;;32.67;15.30;;;0.70;99.90;;;;;;5031311;28;20040;-38
2022/12/04 06:53:29;;;;;;;32.22;14.38;;;0.80;99.90;;;;;;5030295;28;20046;-38
2022/12/04 06:55:59;;;;;;;32.80;13.80;;;0.80;99.90;;;;;;5044591;28;20056;-40
2022/12/04 06:58:26;;;;;;;35.08;14.90;;;0.80;99.90;;;;;;5039554;28;21340;-38
2022/12/04 07:00:52;;;;;;;35.70;14.55;;;0.70;99.90;;;;;;5038520;28;20486;-38
2022/12/04 07:03:18;;;;;;;30.08;13.93;;;0.80;99.90;;;;;;5039502;28;20114;-39
2022/12/04 07:05:44;;;;;;;34.38;14.75;;;0.70;99.90;;;;;;5033768;28;20401;-38
2022/12/04 07:08:10;;;;;;;39.22;15.77;;;0.70;99.90;;;;;;5032879;28;20049;-38
2022/12/04 07:10:36;;;;;;;35.20;15.00;;;0.70;99.90;;;;;;5041675;28;20037;-39
2022/12/04 07:13:03;;;;;;;32.42;13.95;;;0.80;99.90;;;;;;5042970;28;20045;-38
2022/12/04 07:15:29;;;;;;;34.22;14.98;;;0.70;99.90;;;;;;5040329;28;20126;-38
2022/12/04 07:17:55;;;;;;;36.97;15.48;;;0.70;99.90;;;;;;5043170;28;20506;-38
2022/12/04 07:20:20;;;;;;;35.03;14.43;;;0.70;99.90;;;;;;5037763;28;20037;-38
2022/12/04 07:22:46;;;;;;;34.25;14.77;;;0.70;99.90;;;;;;5046593;28;20562;-40
2022/12/04 07:25:12;;;;;;;29.75;13.15;;;0.70;99.90;;;;;;5041973;28;20049;-38
2022/12/04 07:27:37;;;;;;;32.10;13.70;;;0.70;99.90;;;;;;5049663;28;20425;-38
2022/12/04 07:30:04;;;;;;;32.65;14.88;;;0.70;99.90;;;;;;5040756;28;20037;-38
2022/12/04 07:32:31;;;;;;;37.28;15.25;;;0.70;99.90;;;;;;5041211;28;20041;-39
2022/12/04 07:34:56;;;;;;;36.20;14.82;;;0.70;99.90;;;;;;5041332;28;20128;-39
2022/12/04 07:37:22;;;;;;;32.83;14.25;;;0.70;99.90;;;;;;5030152;28;20175;-38
2022/12/04 07:39:51;;;;;;;34.85;14.65;;;0.70;99.90;;;;;;5042607;28;20081;-38
2022/12/04 07:42:17;;;;;;;36.90;14.93;;;0.70;99.90;;;;;;5041299;28;20230;-38
2022/12/04 07:44:42;;;;;;;29.73;12.70;;;0.70;99.90;;;;;;5038999;28;20116;-38
2022/12/04 07:47:08;;;;;;;33.00;13.15;;;0.70;99.90;;;;;;5037886;28;20491;-39
2022/12/04 07:49:34;;;;;;;30.90;12.82;;;0.70;99.90;;;;;;5050258;28;20402;-38
2022/12/04 07:51:59;;;;;;;30.30;13.95;;;0.70;99.90;;;;;;5044692;28;20044;-38
2022/12/04 07:54:25;;;;;;;31.98;14.32;;;0.70;99.90;;;;;;5051031;28;20489;-39
2022/12/04 07:56:51;;;;;;;32.95;13.70;;;0.70;99.90;;;;;;5050703;28;20040;-38
2022/12/04 07:59:16;;;;;;;33.15;12.80;;;0.70;99.90;;;;;;5042390;28;20033;-38
2022/12/04 08:01:42;;;;;;;30.10;13.40;;;0.70;99.90;;;;;;5052662;28;20033;-38
2022/12/04 08:04:10;;;;;;;31.13;13.50;;;0.70;99.90;;;;;;5047394;28;20037;-38
2022/12/04 08:06:36;;;;;;;28.92;12.57;;;0.70;99.90;;;;;;5045155;28;20045;-39
2022/12/04 08:09:03;;;;;;;26.77;12.27;;;0.70;99.90;;;;;;5042994;28;20053;-38
2022/12/04 08:11:29;;;;;;;32.22;12.95;;;0.70;99.90;;;;;;5040371;28;21542;-39
2022/12/04 08:13:57;;;;;;;28.25;11.98;;;0.70;99.90;;;;;;5053829;28;20045;-39
2022/12/04 08:16:23;;;;;;;29.00;12.20;;;0.80;99.90;;;;;;5038235;28;20064;-38
2022/12/04 08:18:48;;;;;;;30.67;12.55;;;0.80;99.90;;;;;;5036841;28;20128;-38
2022/12/04 08:21:20;;;;;;;26.98;12.93;;;0.80;99.90;;;;;;5046944;28;20637;-38
2022/12/04 08:23:47;;;;;;;28.67;12.18;;;0.80;99.90;;;;;;5036898;28;20044;-39
2022/12/04 08:26:13;;;;;;;28.42;11.77;;;0.80;99.90;;;;;;5044165;28;20036;-38
2022/12/04 08:28:40;;;;;;;28.35;12.13;;;0.80;99.90;;;;;;5042257;28;20037;-38
2022/12/04 08:31:19;;;;;;;28.40;12.43;;;0.80;99.90;;;;;;5020411;28;20538;-38
2022/12/04 08:33:46;;;;;;;25.00;10.63;;;0.80;99.90;;;;;;5035124;28;20506;-39
2022/12/04 08:36:14;;;;;;;26.27;12.30;;;0.80;99.90;;;;;;5037091;28;20541;-39
2022/12/04 08:38:39;;;;;;;26.20;11.25;;;0.80;99.90;;;;;;5042941;28;20033;-38
2022/12/04 08:41:07;;;;;;;28.90;13.15;;;0.80;99.90;;;;;;5040628;28;20137;-38
2022/12/04 08:43:33;;;;;;;27.58;10.65;;;0.80;99.90;;;;;;5039601;28;20041;-38
2022/12/04 08:46:02;;;;;;;27.08;11.40;;;0.80;99.90;;;;;;5025849;28;20051;-39
2022/12/04 08:48:28;;;;;;;26.90;11.45;;;0.90;99.90;;;;;;5038890;28;20045;-38
2022/12/04 08:50:54;;;;;;;28.27;11.85;;;0.80;99.90;;;;;;5044548;28;20078;-39
2022/12/04 08:53:21;;;;;;;29.73;12.38;;;0.90;99.90;;;;;;5034304;28;20041;-39
2022/12/04 08:55:47;;;;;;;28.58;12.98;;;0.90;99.90;;;;;;5036687;28;20088;-38
2022/12/04 08:58:13;;;;;;;31.75;13.02;;;0.90;99.90;;;;;;5038360;28;20105;-38
2022/12/04 09:00:39;;;;;;;26.48;12.10;;;0.90;99.90;;;;;;5036950;28;20597;-39
2022/12/04 09:03:05;;;;;;;25.95;10.85;;;0.90;99.90;;;;;;5035473;28;20079;-39
2022/12/04 09:05:31;;;;;;;26.88;10.98;;;0.90;99.90;;;;;;5032302;28;20045;-39
2022/12/04 09:07:57;;;;;;;27.73;12.13;;;0.90;99.90;;;;;;5012421;28;20118;-38
2022/12/04 09:10:23;;;;;;;24.73;10.52;;;0.90;99.90;;;;;;5017356;28;20046;-39
2022/12/04 09:12:49;;;;;;;26.38;11.45;;;0.90;99.90;;;;;;5020009;28;20072;-38
2022/12/04 09:15:15;;;;;;;28.35;11.20;;;0.90;99.90;;;;;;5026431;28;20088;-38
2022/12/04 09:17:40;;;;;;;29.15;11.55;;;0.90;99.90;;;;;;5008306;28;20049;-38
2022/12/04 09:20:07;;;;;;;28.52;12.63;;;0.90;99.90;;;;;;5016617;28;20048;-40
2022/12/04 09:22:34;;;;;;;27.90;11.60;;;0.90;99.90;;;;;;5014726;28;20045;-37
2022/12/04 09:25:00;;;;;;;27.58;11.73;;;0.90;99.90;;;;;;5022848;28;20566;-38
2022/12/04 09:27:26;;;;;;;29.20;11.75;;;1.00;99.90;;;;;;5019094;28;20128;-37
2022/12/04 09:29:52;;;;;;;24.40;12.23;;;1.00;99.90;;;;;;5018544;28;20045;-37
2022/12/04 09:32:18;;;;;;;28.25;11.55;;;1.00;99.90;;;;;;5013277;28;20053;-37
2022/12/04 09:34:46;;;;;;;27.25;12.40;;;1.00;99.90;;;;;;5014838;28;20103;-37
2022/12/04 09:37:12;;;;;;;27.27;12.00;;;1.00;99.90;;;;;;5016242;28;20038;-38
2022/12/04 09:39:38;;;;;;;31.52;14.20;;;1.00;99.90;;;;;;5017358;28;20033;-38
2022/12/04 09:42:24;;;;;;;31.15;13.40;;;1.00;99.90;;;;;;5055386;28;20075;-37
2022/12/04 09:45:07;;;;;;;31.60;14.13;;;1.00;99.90;;;;;;5059031;28;20036;-37
2022/12/04 09:47:36;;;;;;;31.42;14.05;;;1.00;99.90;;;;;;5060857;28;20041;-37
2022/12/04 09:50:05;;;;;;;34.22;13.50;;;1.00;99.90;;;;;;5051947;28;20040;-37
2022/12/04 09:52:49;;;;;;;25.48;12.18;;;1.00;99.90;;;;;;5067072;28;20522;-38
2022/12/04 09:55:40;;;;;;;28.95;12.95;;;1.00;99.90;;;;;;5060381;28;20084;-37
2022/12/04 09:58:12;;;;;;;32.55;12.82;;;1.10;99.90;;;;;;5036270;28;20044;-38
2022/12/04 10:00:41;;;;;;;31.73;14.07;;;1.10;99.90;;;;;;5053234;28;20493;-37
2022/12/04 10:03:15;;;;;;;36.40;14.15;;;1.10;99.90;;;;;;5055716;28;20357;-37
2022/12/04 10:05:44;;;;;;;30.20;13.73;;;1.10;99.90;;;;;;5059973;28;20509;-37
2022/12/04 10:08:28;;;;;;;37.88;16.30;;;1.10;99.90;;;;;;5058602;28;20045;-36
2022/12/04 10:10:57;;;;;;;31.88;14.02;;;1.10;99.90;;;;;;5061798;28;20605;-37
2022/12/04 10:13:43;;;;;;;33.90;13.98;;;1.10;99.90;;;;;;5056058;28;20033;-37
2022/12/04 10:17:07;;;;;;;34.53;13.85;;;1.10;99.90;;;;;;5061699;28;20529;-37
2022/12/04 10:19:57;;;;;;;34.35;13.70;;;1.10;99.90;;;;;;5003530;28;20044;-37
2022/12/04 10:22:32;;;;;;;32.20;13.38;;;1.20;99.90;;;;;;5059453;28;20327;-38
2022/12/04 10:25:09;;;;;;;33.30;15.15;;;1.20;99.90;;;;;;5043343;28;20040;-37
2022/12/04 10:27:43;;;;;;;32.60;12.50;;;1.20;99.90;;;;;;5054898;28;20130;-38
2022/12/04 10:30:15;;;;;;;35.75;14.50;;;1.20;99.90;;;;;;5059013;28;20048;-38
2022/12/04 10:32:43;;;;;;;36.92;14.75;;;1.30;99.90;;;;;;5059014;28;20044;-37
2022/12/04 10:35:23;;;;;;;30.75;14.68;;;1.20;99.90;;;;;;5058696;28;20134;-37
2022/12/04 10:37:55;;;;;;;36.92;14.80;;;1.20;99.90;;;;;;5055939;28;20041;-37
2022/12/04 10:40:31;;;;;;;34.83;13.98;;;1.30;99.90;;;;;;5053650;28;20041;-38
2022/12/04 10:43:27;;;;;;;36.55;14.32;;;1.30;99.90;;;;;;5060094;28;20391;-37
2022/12/04 10:45:53;;;;;;;38.67;15.45;;;1.30;99.90;;;;;;5060082;28;20493;-37
2022/12/04 10:48:39;;;;;;;39.92;15.18;;;1.30;99.90;;;;;;5057421;28;20069;-38
2022/12/04 10:51:11;;;;;;;40.40;14.55;;;1.40;99.90;;;;;;5049513;28;20037;-38
2022/12/04 10:53:37;;;;;;;37.50;15.13;;;1.40;99.90;;;;;;5062668;28;20532;-37
2022/12/04 10:56:18;;;;;;;32.10;14.35;;;1.40;99.90;;;;;;5057898;28;20032;-37
2022/12/04 10:59:02;;;;;;;35.92;15.70;;;1.40;99.90;;;;;;5056583;28;20059;-37
2022/12/04 11:01:30;;;;;;;36.67;15.57;;;1.40;99.90;;;;;;5056063;28;20098;-40
2022/12/04 11:04:08;;;;;;;38.55;15.15;;;1.40;99.90;;;;;;5055967;28;20571;-37
2022/12/04 11:06:34;;;;;;;37.67;15.98;;;1.40;99.90;;;;;;5044473;28;20055;-37
2022/12/04 11:09:02;;;;;;;38.55;16.42;;;1.50;99.90;;;;;;5047376;28;20048;-38
2022/12/04 11:11:31;;;;;;;36.65;14.43;;;1.50;99.90;;;;;;5055969;28;20120;-38
2022/12/04 11:14:06;;;;;;;35.22;15.05;;;1.50;99.90;;;;;;5059949;28;20044;-37
2022/12/04 11:16:36;;;;;;;34.22;13.93;;;1.50;99.90;;;;;;5058132;28;20451;-38
2022/12/04 11:19:02;;;;;;;35.80;15.00;;;1.60;99.90;;;;;;5056795;28;20040;-37
2022/12/04 11:21:30;;;;;;;32.85;14.65;;;1.60;99.90;;;;;;5057768;28;20078;-38
2022/12/04 11:23:57;;;;;;;32.95;14.27;;;1.60;99.90;;;;;;5059193;28;20639;-37
2022/12/04 11:26:36;;;;;;;38.58;15.55;;;1.60;99.90;;;;;;5058943;28;20044;-38
2022/12/04 11:29:04;;;;;;;33.88;14.77;;;1.60;99.90;;;;;;5043108;28;20076;-38
2022/12/04 11:31:31;;;;;;;38.53;15.13;;;1.70;99.90;;;;;;5064955;28;20036;-38
2022/12/04 11:34:01;;;;;;;36.13;15.25;;;1.70;99.90;;;;;;5063984;28;20048;-40
2022/12/04 11:36:39;;;;;;;36.35;15.73;;;1.70;99.90;;;;;;5057475;28;20041;-38
2022/12/04 11:39:16;;;;;;;34.58;15.35;;;1.70;99.90;;;;;;5060289;28;20052;-38
2022/12/04 11:41:45;;;;;;;31.35;14.80;;;1.80;99.90;;;;;;5061191;28;20053;-39
2022/12/04 11:44:28;;;;;;;33.30;14.68;;;1.80;99.90;;;;;;5064474;28;20044;-37
2022/12/04 11:46:57;;;;;;;29.40;13.48;;;1.80;99.90;;;;;;5067907;28;20044;-37
2022/12/04 11:49:24;;;;;;;37.03;14.90;;;1.80;99.90;;;;;;5059302;28;20041;-37
2022/12/04 11:52:11;;;;;;;30.88;14.50;;;1.80;99.90;;;;;;5063980;28;20597;-37
2022/12/04 11:54:40;;;;;;;31.77;14.10;;;1.80;99.90;;;;;;5067093;28;20052;-37
2022/12/04 11:57:42;;;;;;;30.05;13.93;;;1.80;99.90;;;;;;5068352;28;20044;-37
2022/12/04 12:00:15;;;;;;;29.67;13.73;;;1.80;99.90;;;;;;5060335;28;20101;-38
2022/12/04 12:02:53;;;;;;;27.30;13.15;;;1.90;99.90;;;;;;5058437;28;20059;-38
2022/12/04 12:05:59;;;;;;;30.33;13.85;;;1.80;99.90;;;;;;5062539;28;20076;-50
2022/12/04 12:08:36;;;;;;;27.75;13.10;;;1.90;99.90;;;;;;5056294;28;20395;-44
2022/12/04 12:11:33;;;;;;;36.58;12.32;;;1.90;99.90;;;;;;5059713;28;20391;-46
2022/12/04 12:14:20;;;;;;;25.63;11.57;;;2.00;99.90;;;;;;5056669;28;20102;-41
2022/12/04 12:16:49;;;;;;;25.60;12.00;;;2.00;99.90;;;;;;5065041;28;20043;-45
2022/12/04 12:19:36;;;;;;;29.27;12.82;;;2.00;99.90;;;;;;5063725;28;20049;-43
2022/12/04 12:22:40;;;;;;;25.27;11.18;;;2.10;99.90;;;;;;5056810;28;20044;-45
2022/12/04 12:25:36;;;;;;;27.00;11.75;;;2.10;99.90;;;;;;5060996;28;20101;-42
2022/12/04 12:28:25;;;;;;;25.17;11.25;;;2.10;99.90;;;;;;5055924;28;20041;-41
2022/12/04 12:31:06;;;;;;;24.30;10.43;;;2.20;99.90;;;;;;5060568;28;20532;-47
2022/12/04 12:33:57;;;;;;;21.92;10.40;;;2.20;99.90;;;;;;5062471;28;20135;-44
2022/12/04 12:36:26;;;;;;;24.55;10.80;;;2.20;99.90;;;;;;5050731;28;20584;-45
2022/12/04 12:39:29;;;;;;;22.45;10.07;;;2.20;99.90;;;;;;5056449;28;20037;-47
2022/12/04 12:41:57;;;;;;;;;;;2.20;99.90;;;;;;5041013;28;20053;-48
2022/12/04 12:44:43;;;;;;;22.15;10.43;;;2.30;99.90;;;;;;5057576;28;20433;-44
2022/12/04 12:47:15;;;;;;;21.27;9.48;;;2.30;99.90;;;;;;5060252;28;20052;-41
2022/12/04 12:49:51;;;;;;;23.52;10.45;;;2.30;99.90;;;;;;5040830;28;20045;-42
2022/12/04 12:52:29;;;;;;;22.25;10.32;;;2.30;99.90;;;;;;5064212;28;20044;-45
2022/12/04 12:54:57;;;;;;;24.02;10.27;;;2.40;99.90;;;;;;5060066;28;20053;-46
2022/12/04 12:57:42;;;;;;;21.25;10.23;;;2.30;99.90;;;;;;5063241;28;20041;-42
2022/12/04 13:00:21;;;;;;;17.90;8.30;;;2.40;99.90;;;;;;5060584;28;20080;-43
2022/12/04 13:03:11;;;;;;;21.13;8.82;;;2.40;99.90;;;;;;5064075;28;20072;-45
2022/12/04 13:05:43;;;;;;;20.92;10.05;;;2.40;99.90;;;;;;5060992;28;20055;-46
2022/12/04 13:08:29;;;;;;;19.23;8.93;;;2.40;99.90;;;;;;5061657;28;20379;-43
2022/12/04 13:11:04;;;;;;;17.77;7.40;;;2.40;99.90;;;;;;5060795;28;20565;-45
2022/12/04 13:13:33;;;;;;;21.23;8.45;;;2.50;99.90;;;;;;5067376;28;20465;-47
2022/12/04 13:16:37;;;;;;;19.15;8.60;;;2.50;99.90;;;;;;5054813;28;20475;-45